createdAt,value
2022-11-04T11:15:50.119Z,10.18
2022-11-04T11:18:33.728Z,11.95
2022-11-04T11:21:10.046Z,11.68
2022-11-04T11:23:43.099Z,10.98
2022-11-04T11:26:19.021Z,12.63
2022-11-04T11:28:59.604Z,12.82
2022-11-04T11:31:39.497Z,13.35
2022-11-04T11:34:50.967Z,14.60
2022-11-04T11:37:27.977Z,14.93
2022-11-04T11:40:10.841Z,11.10
2022-11-04T11:42:45.612Z,11.55
2022-11-04T11:45:18.213Z,11.98
2022-11-04T11:47:55.905Z,10.73
2022-11-04T11:50:37.255Z,10.38
2022-11-04T11:53:16.624Z,10.35
2022-11-04T11:55:57.038Z,11.20
2022-11-04T12:01:46.124Z,11.70
2022-11-04T12:10:49.725Z,12.20
2022-11-04T12:13:31.636Z,12.60
2022-11-04T12:16:25.324Z,10.90
2022-11-04T12:19:34.825Z,9.68
2022-11-04T12:22:10.815Z,9.98
2022-11-04T12:24:55.580Z,8.18
2022-11-04T12:27:36.499Z,9.05
2022-11-04T12:30:10.658Z,8.68
2022-11-04T12:33:11.493Z,8.85
2022-11-04T12:36:03.607Z,10.38
2022-11-04T12:39:02.232Z,9.20
2022-11-04T12:42:14.202Z,8.82
2022-11-04T12:44:40.162Z,7.85
2022-11-04T12:47:37.225Z,7.85
2022-11-04T12:50:27.073Z,8.02
2022-11-04T12:53:40.508Z,6.63
2022-11-04T12:59:17.514Z,4.72
2022-11-04T13:01:54.848Z,4.95
2022-11-04T13:04:28.159Z,4.82
2022-11-04T13:07:04.524Z,4.40
2022-11-04T13:09:40.456Z,5.35
2022-11-04T13:12:27.013Z,6.18
2022-11-04T13:15:04.213Z,4.28
2022-11-04T13:17:37.623Z,5.05
2022-11-04T13:20:27.683Z,5.00
2022-11-04T13:23:07.937Z,5.63
2022-11-04T13:29:05.861Z,6.10
2022-11-04T13:31:52.872Z,6.20
2022-11-04T13:34:41.914Z,6.53
2022-11-04T13:37:23.606Z,8.57
2022-11-04T13:39:56.898Z,5.60
2022-11-04T13:43:20.027Z,6.55
2022-11-04T13:45:54.845Z,6.35
2022-11-04T13:48:29.438Z,6.07
2022-11-04T13:51:05.369Z,6.13
2022-11-04T13:53:47.283Z,5.85
2022-11-04T13:56:34.244Z,6.40
2022-11-04T13:59:11.907Z,5.90
2022-11-04T14:01:47.244Z,6.07
2022-11-04T14:04:30.665Z,6.50
2022-11-04T14:07:12.439Z,6.90
2022-11-04T14:10:13.385Z,7.95
2022-11-04T14:12:55.410Z,7.63
2022-11-04T14:16:05.393Z,7.72
2022-11-04T14:21:13.632Z,8.30
2022-11-04T14:23:45.736Z,9.30
2022-11-04T14:26:22.355Z,8.95
2022-11-04T14:29:09.107Z,8.98
2022-11-04T14:31:50.390Z,7.85
2022-11-04T14:34:30.073Z,7.35
2022-11-04T14:37:01.835Z,6.30
2022-11-04T14:39:34.439Z,7.32
2022-11-04T14:42:06.892Z,6.63
2022-11-04T14:47:40.918Z,6.47
2022-11-04T14:50:37.364Z,7.03
2022-11-04T14:53:15.696Z,8.32
2022-11-04T14:58:57.661Z,10.98
2022-11-04T15:01:53.604Z,10.70
2022-11-04T15:04:41.247Z,9.48
2022-11-04T15:13:29.727Z,11.50
2022-11-04T15:19:13.424Z,10.20
2022-11-04T15:25:24.319Z,13.63
2022-11-04T15:39:12.858Z,12.82
2022-11-04T15:42:33.689Z,15.57
2022-11-04T15:49:37.946Z,14.30
2022-11-04T15:56:01.477Z,14.45
2022-11-04T15:58:44.407Z,15.70
2022-11-04T16:10:14.320Z,16.08
2022-11-04T16:16:41.728Z,16.95
2022-11-04T16:39:34.689Z,16.15
2022-11-04T16:54:53.198Z,17.75
2022-11-04T16:58:25.976Z,21.10
2022-11-04T17:53:45.150Z,15.77
2022-11-04T18:25:07.689Z,17.35
2022-11-04T18:38:47.971Z,18.33
2022-11-04T18:41:26.937Z,18.88
2022-11-04T18:44:57.574Z,18.67
2022-11-04T19:23:05.227Z,18.73
2022-11-04T19:57:58.479Z,12.38
2022-11-04T20:01:01.720Z,13.20
2022-11-04T20:11:35.246Z,13.32
2022-11-04T20:14:14.766Z,12.75
2022-11-04T20:17:09.471Z,11.25
2022-11-04T20:20:12.869Z,11.65
2022-11-04T20:26:49.780Z,12.13
2022-11-04T20:29:37.034Z,11.95
2022-11-04T20:33:18.542Z,11.82
2022-11-04T20:36:30.474Z,13.00
2022-11-04T20:54:04.269Z,13.32
2022-11-04T20:57:51.534Z,13.27
2022-11-04T21:00:52.566Z,13.27
2022-11-04T21:14:36.540Z,16.35
2022-11-04T21:17:40.134Z,17.05
2022-11-04T21:23:43.773Z,18.38
2022-11-04T21:33:41.381Z,22.48
2022-11-04T21:36:26.472Z,22.00
2022-11-04T21:39:09.558Z,20.70
2022-11-04T21:42:25.597Z,20.73
2022-11-04T21:45:25.470Z,21.38
2022-11-04T21:48:22.090Z,21.23
2022-11-04T22:01:59.261Z,19.55
2022-11-04T22:04:50.951Z,19.27
2022-11-04T22:07:48.259Z,20.13
2022-11-04T22:10:26.349Z,20.25
2022-11-04T22:21:07.027Z,19.92
2022-11-04T22:30:34.941Z,19.88
2022-11-04T22:36:24.659Z,20.27
2022-11-04T22:39:17.110Z,20.70
2022-11-04T22:48:40.653Z,20.65
2022-11-04T22:52:04.116Z,21.15
2022-11-04T23:03:54.349Z,21.25
2022-11-04T23:21:52.323Z,21.52
2022-11-04T23:44:50.602Z,22.88
2022-11-04T23:47:48.666Z,21.35
2022-11-04T23:50:39.193Z,21.10
2022-11-04T23:53:29.933Z,22.33
2022-11-04T23:56:24.244Z,21.48
2022-11-04T23:59:52.599Z,22.48
